Time;durP1;ratioP1;P1;durP2;ratioP2;P2;SDS_P1;SDS_P2;PMS_P1;PMS_P2;Temp;Humidity;BMP_temperature;BMP_pressure;BME280_temperature;BME280_humidity;BME280_pressure;Samples;Min_cycle;Max_cycle;Signal;HPM_P1;HPM_P2
2023/05/29 00:00:23;;;;;;;11.65;2.30;;;;;;;;;;4993292;28;20038;-77
2023/05/29 00:02:50;;;;;;;9.80;2.00;;;;;;;;;;4993526;28;20038;-77
2023/05/29 00:05:16;;;;;;;11.00;1.95;;;;;;;;;;4992172;28;20382;-78
2023/05/29 00:07:41;;;;;;;8.10;2.08;;;;;;;;;;4993291;28;20045;-78
2023/05/29 00:10:08;;;;;;;12.15;2.55;;;;;;;;;;4993101;28;20033;-78
2023/05/29 00:12:34;;;;;;;14.65;2.60;;;;;;;;;;4993701;28;20121;-78
2023/05/29 00:15:00;;;;;;;8.90;2.10;;;;;;;;;;4992761;28;20042;-77
2023/05/29 00:17:26;;;;;;;11.73;2.38;;;;;;;;;;4989643;28;20042;-78
2023/05/29 00:19:51;;;;;;;5.35;1.63;;;;;;;;;;4993224;28;20038;-78
2023/05/29 00:22:17;;;;;;;14.20;2.78;;;;;;;;;;4993357;28;20046;-78
2023/05/29 00:24:42;;;;;;;15.35;2.30;;;;;;;;;;4993351;28;20110;-78
2023/05/29 00:27:08;;;;;;;11.50;2.28;;;;;;;;;;4989945;28;20438;-78
2023/05/29 00:29:35;;;;;;;12.75;1.98;;;;;;;;;;4989059;28;20035;-78
2023/05/29 00:32:01;;;;;;;8.43;2.03;;;;;;;;;;4990028;28;20034;-78
2023/05/29 00:34:27;;;;;;;8.75;1.70;;;;;;;;;;4993386;28;20038;-79
2023/05/29 00:36:54;;;;;;;7.20;2.45;;;;;;;;;;4992990;28;20042;-77
2023/05/29 00:39:20;;;;;;;14.18;3.10;;;;;;;;;;4986646;28;20065;-78
2023/05/29 00:41:45;;;;;;;12.75;2.15;;;;;;;;;;4993124;28;20034;-78
2023/05/29 00:44:11;;;;;;;9.95;1.92;;;;;;;;;;4993230;28;20445;-77
2023/05/29 00:46:36;;;;;;;12.65;1.80;;;;;;;;;;4992766;28;20097;-77
2023/05/29 00:49:02;;;;;;;8.18;1.85;;;;;;;;;;4983716;28;20030;-78
2023/05/29 00:51:28;;;;;;;6.97;2.08;;;;;;;;;;4991774;28;20038;-78
2023/05/29 00:53:54;;;;;;;6.60;1.63;;;;;;;;;;4979301;28;20034;-79
2023/05/29 00:56:20;;;;;;;8.68;2.83;;;;;;;;;;4991981;28;20041;-78
2023/05/29 00:58:48;;;;;;;11.30;1.92;;;;;;;;;;4993223;28;20061;-77
2023/05/29 01:01:13;;;;;;;21.02;2.58;;;;;;;;;;4988707;28;20048;-79
2023/05/29 01:03:40;;;;;;;10.07;2.67;;;;;;;;;;4987040;28;20026;-78
2023/05/29 01:06:07;;;;;;;11.73;2.08;;;;;;;;;;4992126;28;20371;-78
2023/05/29 01:08:32;;;;;;;11.60;1.58;;;;;;;;;;4993236;28;20049;-78
2023/05/29 01:11:05;;;;;;;9.95;1.85;;;;;;;;;;4993402;28;20394;-78
2023/05/29 01:13:31;;;;;;;2.75;1.35;;;;;;;;;;4992298;28;20046;-78
2023/05/29 01:16:21;;;;;;;9.40;2.15;;;;;;;;;;4981083;28;20042;-78
2023/05/29 01:19:12;;;;;;;11.23;2.03;;;;;;;;;;4991876;28;20070;-78
2023/05/29 01:21:37;;;;;;;13.55;2.10;;;;;;;;;;4992860;28;20030;-77
2023/05/29 01:24:09;;;;;;;10.60;3.22;;;;;;;;;;4994188;28;20508;-77
2023/05/29 01:27:00;;;;;;;10.93;2.25;;;;;;;;;;4994037;28;20109;-78
2023/05/29 01:29:27;;;;;;;4.70;1.42;;;;;;;;;;4991832;28;20538;-78
2023/05/29 01:31:53;;;;;;;9.10;1.95;;;;;;;;;;4992515;28;20077;-78
2023/05/29 01:34:19;;;;;;;12.52;1.42;;;;;;;;;;4995738;28;20042;-78
2023/05/29 01:36:46;;;;;;;6.10;1.50;;;;;;;;;;4995410;28;20044;-78
2023/05/29 01:39:11;;;;;;;12.25;1.60;;;;;;;;;;4995745;28;20038;-78
2023/05/29 01:41:37;;;;;;;6.50;1.70;;;;;;;;;;4990561;28;20038;-78
2023/05/29 01:44:08;;;;;;;9.95;2.13;;;;;;;;;;5025008;28;20109;-78
2023/05/29 01:46:35;;;;;;;8.13;2.85;;;;;;;;;;4994446;28;20033;-78
2023/05/29 01:49:01;;;;;;;5.13;1.80;;;;;;;;;;4994362;28;20042;-78
2023/05/29 01:51:26;;;;;;;11.05;2.40;;;;;;;;;;4995022;28;20100;-78
2023/05/29 01:53:52;;;;;;;4.80;1.40;;;;;;;;;;4994479;28;20049;-78
2023/05/29 01:56:17;;;;;;;7.47;2.30;;;;;;;;;;4995525;28;20046;-78
2023/05/29 01:58:43;;;;;;;7.80;1.77;;;;;;;;;;4993634;28;20053;-78
2023/05/29 02:01:09;;;;;;;9.32;1.90;;;;;;;;;;4994008;28;20038;-79
2023/05/29 02:03:35;;;;;;;7.13;2.03;;;;;;;;;;4993883;28;20030;-78
2023/05/29 02:06:00;;;;;;;7.00;1.75;;;;;;;;;;4995095;28;20112;-78
2023/05/29 02:08:26;;;;;;;9.13;2.13;;;;;;;;;;4994872;28;20042;-78
2023/05/29 02:10:52;;;;;;;5.38;1.33;;;;;;;;;;4992944;28;20482;-77
2023/05/29 02:13:17;;;;;;;13.43;1.80;;;;;;;;;;4995216;28;20100;-78
2023/05/29 02:15:43;;;;;;;10.23;2.10;;;;;;;;;;4994935;28;20061;-78
2023/05/29 02:18:13;;;;;;;11.20;2.20;;;;;;;;;;4994966;28;20050;-79
2023/05/29 02:20:39;;;;;;;7.68;2.33;;;;;;;;;;4994691;28;20402;-75
2023/05/29 02:23:04;;;;;;;11.60;1.50;;;;;;;;;;4994862;28;20030;-77
2023/05/29 02:25:30;;;;;;;10.80;2.15;;;;;;;;;;4993806;28;20040;-76
2023/05/29 02:27:56;;;;;;;16.10;2.35;;;;;;;;;;4994800;28;20057;-78
2023/05/29 02:30:21;;;;;;;11.38;2.33;;;;;;;;;;4992623;28;20106;-77
2023/05/29 02:32:47;;;;;;;9.15;1.75;;;;;;;;;;4994698;28;20045;-78
2023/05/29 02:35:17;;;;;;;10.07;1.88;;;;;;;;;;4994743;28;20073;-79
2023/05/29 02:37:42;;;;;;;9.80;2.20;;;;;;;;;;4992333;28;20042;-78
2023/05/29 02:40:08;;;;;;;7.53;1.90;;;;;;;;;;4994296;28;20034;-78
2023/05/29 02:42:34;;;;;;;9.63;1.90;;;;;;;;;;4994849;28;20117;-78
2023/05/29 02:44:59;;;;;;;16.23;2.58;;;;;;;;;;4994677;28;20038;-79
2023/05/29 02:47:25;;;;;;;7.63;2.33;;;;;;;;;;4980443;28;20067;-79
2023/05/29 02:49:50;;;;;;;10.48;1.98;;;;;;;;;;4994337;28;20042;-78
2023/05/29 02:52:15;;;;;;;7.63;1.63;;;;;;;;;;4994306;28;20038;-79
2023/05/29 02:54:41;;;;;;;7.32;1.90;;;;;;;;;;4993596;28;20042;-76
2023/05/29 02:57:06;;;;;;;19.42;2.25;;;;;;;;;;4993897;28;20446;-76
2023/05/29 02:59:32;;;;;;;6.80;1.90;;;;;;;;;;4994430;28;20046;-76
2023/05/29 03:01:57;;;;;;;17.63;2.00;;;;;;;;;;4990654;28;20478;-76
2023/05/29 03:04:22;;;;;;;12.98;1.95;;;;;;;;;;4986090;28;20399;-77
2023/05/29 03:06:48;;;;;;;7.47;2.03;;;;;;;;;;4992476;28;20489;-76
2023/05/29 03:09:15;;;;;;;14.98;1.92;;;;;;;;;;4993797;28;20035;-77
2023/05/29 03:11:41;;;;;;;9.85;2.65;;;;;;;;;;4988124;28;20046;-75
2023/05/29 03:14:06;;;;;;;16.13;2.53;;;;;;;;;;4994324;28;20056;-77
2023/05/29 03:16:32;;;;;;;13.07;2.53;;;;;;;;;;4993977;28;20080;-76
2023/05/29 03:18:57;;;;;;;18.90;2.25;;;;;;;;;;4993639;28;20042;-76
2023/05/29 03:21:23;;;;;;;5.90;1.90;;;;;;;;;;4992446;28;20038;-75
2023/05/29 03:23:48;;;;;;;6.25;2.10;;;;;;;;;;4994131;28;20062;-76
2023/05/29 03:26:14;;;;;;;12.32;2.75;;;;;;;;;;4994085;28;20084;-77
2023/05/29 03:28:40;;;;;;;10.68;1.90;;;;;;;;;;4993699;28;20120;-77
2023/05/29 03:31:05;;;;;;;14.73;1.80;;;;;;;;;;4993750;28;20042;-77
2023/05/29 03:33:30;;;;;;;7.95;1.77;;;;;;;;;;4993556;28;20042;-77
2023/05/29 03:35:56;;;;;;;7.38;1.75;;;;;;;;;;4993866;28;20042;-76
2023/05/29 03:38:22;;;;;;;12.23;1.80;;;;;;;;;;4992341;28;20038;-77
2023/05/29 03:40:47;;;;;;;6.05;1.50;;;;;;;;;;4993501;28;20117;-77
2023/05/29 03:43:12;;;;;;;4.53;1.80;;;;;;;;;;4991349;28;20034;-77
2023/05/29 03:45:38;;;;;;;5.00;1.65;;;;;;;;;;4993666;28;20041;-78
2023/05/29 03:48:03;;;;;;;7.60;1.70;;;;;;;;;;4993561;28;20062;-78
2023/05/29 03:50:29;;;;;;;20.77;2.15;;;;;;;;;;4993668;28;20077;-77
2023/05/29 03:52:54;;;;;;;9.70;1.92;;;;;;;;;;4993513;28;20105;-77
2023/05/29 03:55:19;;;;;;;15.65;4.07;;;;;;;;;;4993538;28;20042;-77
2023/05/29 03:57:45;;;;;;;6.82;2.00;;;;;;;;;;4988419;28;20088;-78
2023/05/29 04:00:11;;;;;;;9.45;2.20;;;;;;;;;;4993038;28;20070;-79
2023/05/29 04:02:40;;;;;;;11.90;1.83;;;;;;;;;;4986040;28;20054;-78
2023/05/29 04:05:08;;;;;;;10.93;2.17;;;;;;;;;;4992992;28;20037;-78
2023/05/29 04:07:38;;;;;;;13.40;2.13;;;;;;;;;;4992992;28;20037;-78
2023/05/29 04:10:07;;;;;;;8.75;1.90;;;;;;;;;;4992413;28;20034;-77
2023/05/29 04:12:33;;;;;;;10.10;2.10;;;;;;;;;;4991942;28;20125;-78
2023/05/29 04:14:58;;;;;;;6.95;1.95;;;;;;;;;;4992143;28;20117;-79
2023/05/29 04:17:24;;;;;;;9.68;1.95;;;;;;;;;;4986643;28;20183;-76
2023/05/29 04:19:50;;;;;;;11.82;2.75;;;;;;;;;;4991917;28;20039;-78
2023/05/29 04:22:15;;;;;;;11.43;2.92;;;;;;;;;;4992870;28;20034;-78
2023/05/29 04:24:43;;;;;;;17.23;2.45;;;;;;;;;;4993536;28;20502;-77
2023/05/29 04:27:13;;;;;;;3.83;1.25;;;;;;;;;;4991795;28;20041;-78
2023/05/29 04:29:42;;;;;;;13.57;2.15;;;;;;;;;;4986427;28;20033;-77
2023/05/29 04:32:09;;;;;;;10.50;1.95;;;;;;;;;;4993156;28;20051;-77
2023/05/29 04:34:35;;;;;;;12.98;1.75;;;;;;;;;;4996800;28;20041;-78
2023/05/29 04:37:02;;;;;;;12.82;2.65;;;;;;;;;;4990615;28;20041;-77
2023/05/29 04:39:28;;;;;;;9.82;2.22;;;;;;;;;;4994928;28;20145;-76
2023/05/29 04:41:53;;;;;;;5.75;2.03;;;;;;;;;;4985464;28;20113;-76
2023/05/29 04:44:19;;;;;;;13.52;1.92;;;;;;;;;;4996928;28;20034;-76
2023/05/29 04:46:44;;;;;;;11.77;2.00;;;;;;;;;;4994246;28;20045;-76
2023/05/29 04:49:12;;;;;;;11.75;2.10;;;;;;;;;;4997038;28;20038;-76
2023/05/29 04:51:40;;;;;;;8.65;1.95;;;;;;;;;;4995188;28;20034;-77
2023/05/29 04:54:06;;;;;;;7.50;1.77;;;;;;;;;;4996898;28;20438;-79
2023/05/29 04:56:32;;;;;;;6.93;1.45;;;;;;;;;;4996346;28;20030;-79
2023/05/29 04:58:58;;;;;;;9.50;1.90;;;;;;;;;;4996419;28;20054;-77
2023/05/29 05:01:24;;;;;;;10.13;1.80;;;;;;;;;;4996269;28;20451;-77
2023/05/29 05:03:49;;;;;;;12.52;1.80;;;;;;;;;;4996712;28;20113;-77
2023/05/29 05:06:16;;;;;;;11.52;2.38;;;;;;;;;;4995976;28;20487;-77
2023/05/29 05:08:42;;;;;;;9.35;2.70;;;;;;;;;;4993819;28;20042;-78
2023/05/29 05:11:07;;;;;;;10.00;2.05;;;;;;;;;;4994407;28;20038;-77
2023/05/29 05:13:33;;;;;;;7.97;1.77;;;;;;;;;;4996173;28;20394;-78
2023/05/29 05:15:58;;;;;;;7.38;1.52;;;;;;;;;;4994058;28;20034;-77
2023/05/29 05:18:24;;;;;;;5.65;1.77;;;;;;;;;;4993340;28;20072;-78
2023/05/29 05:20:50;;;;;;;6.20;1.70;;;;;;;;;;4996180;28;20034;-77
2023/05/29 05:23:15;;;;;;;6.13;2.03;;;;;;;;;;4996444;28;20471;-77
2023/05/29 05:25:40;;;;;;;8.25;1.63;;;;;;;;;;4995174;28;20037;-77
2023/05/29 05:28:06;;;;;;;8.13;1.50;;;;;;;;;;4996270;28;20042;-78
2023/05/29 05:30:31;;;;;;;5.63;1.98;;;;;;;;;;4995501;28;20038;-78
2023/05/29 05:32:57;;;;;;;13.63;1.80;;;;;;;;;;4996692;28;20034;-78
2023/05/29 05:35:23;;;;;;;7.38;1.65;;;;;;;;;;4996072;28;20382;-77
2023/05/29 05:37:49;;;;;;;11.20;2.13;;;;;;;;;;4995857;28;20038;-78
2023/05/29 05:40:14;;;;;;;5.88;1.50;;;;;;;;;;4996008;28;20101;-78
2023/05/29 05:42:40;;;;;;;8.52;1.73;;;;;;;;;;4995301;28;20040;-76
2023/05/29 05:45:06;;;;;;;8.43;1.70;;;;;;;;;;4989868;28;20042;-78
2023/05/29 05:47:32;;;;;;;8.75;1.90;;;;;;;;;;4993690;28;20049;-78
2023/05/29 05:49:57;;;;;;;5.72;1.60;;;;;;;;;;4990249;28;20474;-77
2023/05/29 05:52:24;;;;;;;8.43;1.73;;;;;;;;;;4993138;28;20120;-76
2023/05/29 05:54:50;;;;;;;5.63;1.40;;;;;;;;;;4995706;28;20030;-81
2023/05/29 05:57:15;;;;;;;6.63;2.25;;;;;;;;;;4989665;28;20513;-79
2023/05/29 05:59:41;;;;;;;5.50;1.65;;;;;;;;;;4994906;28;20065;-80
2023/05/29 06:02:06;;;;;;;7.20;1.73;;;;;;;;;;4995010;28;20054;-80
2023/05/29 06:04:32;;;;;;;8.77;2.70;;;;;;;;;;4995429;28;20125;-80
2023/05/29 06:06:57;;;;;;;7.80;1.50;;;;;;;;;;4989860;28;20042;-80
2023/05/29 06:09:23;;;;;;;12.00;1.55;;;;;;;;;;4992617;28;20038;-81
2023/05/29 06:11:48;;;;;;;7.10;1.83;;;;;;;;;;4993529;28;20046;-81
2023/05/29 06:14:14;;;;;;;7.90;2.03;;;;;;;;;;4994265;28;20053;-81
2023/05/29 06:16:40;;;;;;;7.82;2.13;;;;;;;;;;4995049;28;20042;-80
2023/05/29 06:19:05;;;;;;;8.13;1.83;;;;;;;;;;4987478;28;20039;-81
2023/05/29 06:21:32;;;;;;;7.45;1.80;;;;;;;;;;5021897;28;20101;-79
2023/05/29 06:23:57;;;;;;;7.38;2.00;;;;;;;;;;4995312;28;20074;-81
2023/05/29 06:26:24;;;;;;;8.48;1.92;;;;;;;;;;4993106;28;20128;-80
2023/05/29 06:28:50;;;;;;;6.43;1.77;;;;;;;;;;4994751;28;20038;-80
2023/05/29 06:31:15;;;;;;;6.95;1.88;;;;;;;;;;4989527;28;20046;-82
2023/05/29 06:33:41;;;;;;;7.95;2.08;;;;;;;;;;4988372;28;20038;-79
2023/05/29 06:36:06;;;;;;;8.07;2.00;;;;;;;;;;4992086;28;20043;-80
2023/05/29 06:38:32;;;;;;;7.55;1.95;;;;;;;;;;4991448;28;20035;-78
2023/05/29 06:40:57;;;;;;;8.07;1.98;;;;;;;;;;4994337;28;20040;-81
2023/05/29 06:43:22;;;;;;;6.32;1.83;;;;;;;;;;4994815;28;20089;-79
2023/05/29 06:45:48;;;;;;;7.10;1.70;;;;;;;;;;4993362;28;20491;-80
2023/05/29 06:48:13;;;;;;;8.52;1.77;;;;;;;;;;4994631;28;20034;-78
2023/05/29 06:50:39;;;;;;;8.73;2.03;;;;;;;;;;4992100;28;20053;-79
2023/05/29 06:53:04;;;;;;;7.85;2.28;;;;;;;;;;4994500;28;20042;-78
2023/05/29 06:55:30;;;;;;;7.80;2.28;;;;;;;;;;4993802;28;20022;-78
2023/05/29 06:57:55;;;;;;;6.18;1.73;;;;;;;;;;4992763;28;20041;-78
2023/05/29 07:00:21;;;;;;;9.95;2.20;;;;;;;;;;4992377;28;20889;-78
2023/05/29 07:02:46;;;;;;;7.13;1.75;;;;;;;;;;4987514;28;20053;-78
2023/05/29 07:05:11;;;;;;;7.03;1.98;;;;;;;;;;4994063;28;20038;-78
2023/05/29 07:07:37;;;;;;;5.93;1.90;;;;;;;;;;4993972;28;20041;-78
2023/05/29 07:10:02;;;;;;;11.23;1.92;;;;;;;;;;4994198;28;20034;-79
2023/05/29 07:12:28;;;;;;;6.28;1.80;;;;;;;;;;4992066;28;20034;-78
2023/05/29 07:14:53;;;;;;;9.05;2.05;;;;;;;;;;4993000;28;20458;-74
2023/05/29 07:17:18;;;;;;;6.78;1.80;;;;;;;;;;4993549;28;20046;-75
2023/05/29 07:19:44;;;;;;;9.70;1.98;;;;;;;;;;4993706;28;20044;-75
2023/05/29 07:22:10;;;;;;;6.07;2.10;;;;;;;;;;4992970;28;20044;-76
2023/05/29 07:24:35;;;;;;;7.40;2.10;;;;;;;;;;4992418;28;20100;-75
2023/05/29 07:27:00;;;;;;;8.65;1.90;;;;;;;;;;4994025;28;20046;-76
2023/05/29 07:29:26;;;;;;;7.43;2.00;;;;;;;;;;4993945;28;20093;-75
2023/05/29 07:31:51;;;;;;;8.73;1.70;;;;;;;;;;4991330;28;20057;-75
2023/05/29 07:34:17;;;;;;;5.55;1.70;;;;;;;;;;4989300;28;20031;-74
2023/05/29 07:37:03;;;;;;;6.45;1.85;;;;;;;;;;4993068;28;20100;-75
2023/05/29 07:39:29;;;;;;;4.63;1.70;;;;;;;;;;4992158;28;20042;-75
2023/05/29 07:41:54;;;;;;;4.97;1.58;;;;;;;;;;4992106;28;20041;-74
2023/05/29 07:44:20;;;;;;;8.48;1.98;;;;;;;;;;4993843;28;20462;-77
2023/05/29 07:46:46;;;;;;;10.77;1.70;;;;;;;;;;4992777;28;20126;-78
2023/05/29 07:49:11;;;;;;;5.40;1.92;;;;;;;;;;4993851;28;20046;-77
2023/05/29 07:51:36;;;;;;;8.15;1.85;;;;;;;;;;4993367;28;20038;-79
2023/05/29 07:54:02;;;;;;;5.15;1.40;;;;;;;;;;4993715;28;20049;-78
2023/05/29 07:56:28;;;;;;;7.07;1.70;;;;;;;;;;4993860;28;20494;-78
2023/05/29 07:58:54;;;;;;;6.28;1.70;;;;;;;;;;4993664;28;20052;-76
2023/05/29 08:01:21;;;;;;;8.13;1.73;;;;;;;;;;4993329;28;20038;-78
2023/05/29 08:03:47;;;;;;;4.20;1.55;;;;;;;;;;4992638;28;20463;-78
2023/05/29 08:06:13;;;;;;;6.57;1.80;;;;;;;;;;4994639;28;20885;-78
2023/05/29 08:08:38;;;;;;;5.93;2.25;;;;;;;;;;4995735;28;20042;-78
2023/05/29 08:11:04;;;;;;;4.10;1.40;;;;;;;;;;4996254;28;20482;-78
2023/05/29 08:13:30;;;;;;;3.72;1.10;;;;;;;;;;4991718;28;20039;-76
2023/05/29 08:15:56;;;;;;;5.68;1.20;;;;;;;;;;4986944;28;20045;-77
2023/05/29 08:18:25;;;;;;;6.20;1.33;;;;;;;;;;4994931;28;20046;-78
2023/05/29 08:20:51;;;;;;;7.05;1.70;;;;;;;;;;4992844;28;20430;-73
2023/05/29 08:23:16;;;;;;;5.15;1.40;;;;;;;;;;4994906;28;20042;-78
2023/05/29 08:25:42;;;;;;;8.30;2.08;;;;;;;;;;4993268;28;20065;-77
2023/05/29 08:28:07;;;;;;;7.55;1.60;;;;;;;;;;4995511;28;20451;-78
2023/05/29 08:30:33;;;;;;;2.78;1.00;;;;;;;;;;4994716;28;20042;-78
2023/05/29 08:32:58;;;;;;;6.07;1.63;;;;;;;;;;4994656;28;20096;-77
2023/05/29 08:35:23;;;;;;;4.47;1.52;;;;;;;;;;4994598;28;20387;-77
2023/05/29 08:37:49;;;;;;;6.60;1.45;;;;;;;;;;4992194;28;20042;-77
2023/05/29 08:40:14;;;;;;;9.75;1.52;;;;;;;;;;4993585;28;20113;-78
2023/05/29 08:42:46;;;;;;;7.50;1.55;;;;;;;;;;4994412;28;20382;-78
2023/05/29 08:45:13;;;;;;;6.20;1.50;;;;;;;;;;4993794;28;20093;-79
2023/05/29 08:47:40;;;;;;;5.93;1.50;;;;;;;;;;4992984;28;20030;-77
2023/05/29 08:50:07;;;;;;;7.05;1.80;;;;;;;;;;4994000;28;20038;-78
2023/05/29 08:52:37;;;;;;;5.70;1.13;;;;;;;;;;4991814;28;20038;-77
2023/05/29 08:55:04;;;;;;;2.95;1.20;;;;;;;;;;4992755;28;20121;-76
2023/05/29 08:57:30;;;;;;;7.80;1.38;;;;;;;;;;4992718;28;20033;-75
2023/05/29 08:59:56;;;;;;;7.13;1.80;;;;;;;;;;4992371;28;20058;-76
2023/05/29 09:02:22;;;;;;;6.60;1.85;;;;;;;;;;4992325;28;20049;-76
2023/05/29 09:04:52;;;;;;;3.90;1.58;;;;;;;;;;4992919;28;20092;-77
2023/05/29 09:07:19;;;;;;;5.85;1.33;;;;;;;;;;4974802;28;20445;-76
2023/05/29 09:09:45;;;;;;;3.67;1.30;;;;;;;;;;4998551;28;20161;-76
2023/05/29 09:12:10;;;;;;;8.60;1.75;;;;;;;;;;4989065;28;20056;-76
2023/05/29 09:14:40;;;;;;;7.82;1.60;;;;;;;;;;4993298;28;20034;-76
2023/05/29 09:17:08;;;;;;;4.50;1.40;;;;;;;;;;4992160;28;20050;-77
2023/05/29 09:19:35;;;;;;;5.10;1.40;;;;;;;;;;4991689;28;20038;-75
2023/05/29 09:22:02;;;;;;;5.97;1.30;;;;;;;;;;4992345;28;20034;-77
2023/05/29 09:24:28;;;;;;;4.40;1.25;;;;;;;;;;4992273;28;20074;-76
2023/05/29 09:26:53;;;;;;;8.75;1.80;;;;;;;;;;4987804;28;20057;-76
2023/05/29 09:29:19;;;;;;;8.82;1.67;;;;;;;;;;4990863;28;20034;-73
2023/05/29 09:31:47;;;;;;;9.15;2.03;;;;;;;;;;4984367;28;20895;-77
2023/05/29 09:34:13;;;;;;;5.55;1.58;;;;;;;;;;4991004;28;20037;-76
2023/05/29 09:36:38;;;;;;;6.90;1.70;;;;;;;;;;4991793;28;20038;-76
2023/05/29 09:39:04;;;;;;;3.30;1.48;;;;;;;;;;4989588;28;20098;-76
2023/05/29 09:41:31;;;;;;;6.82;1.73;;;;;;;;;;4993526;28;20038;-76
2023/05/29 09:43:56;;;;;;;6.07;1.55;;;;;;;;;;4991533;28;20038;-75
2023/05/29 09:46:22;;;;;;;7.13;1.50;;;;;;;;;;4992458;28;20531;-75
2023/05/29 09:48:48;;;;;;;6.03;1.50;;;;;;;;;;4984654;28;20490;-76
2023/05/29 09:51:21;;;;;;;8.02;1.55;;;;;;;;;;4986652;28;20034;-75
2023/05/29 09:53:47;;;;;;;;;;;;;;;;;;4991184;28;20121;-74
2023/05/29 09:56:15;;;;;;;8.55;1.60;;;;;;;;;;4994225;28;20456;-75
2023/05/29 09:58:45;;;;;;;13.60;2.40;;;;;;;;;;4991962;28;20046;-75
2023/05/29 10:01:12;;;;;;;8.15;1.83;;;;;;;;;;4993185;28;20042;-75
2023/05/29 10:03:37;;;;;;;3.58;1.45;;;;;;;;;;4995251;28;20449;-75
2023/05/29 10:06:05;;;;;;;3.95;1.33;;;;;;;;;;4995600;28;20039;-74
2023/05/29 10:08:31;;;;;;;7.53;1.50;;;;;;;;;;4994379;28;20038;-75
2023/05/29 10:11:09;;;;;;;7.50;1.55;;;;;;;;;;4994010;28;20125;-74
2023/05/29 10:13:38;;;;;;;5.57;1.65;;;;;;;;;;4994217;28;20074;-75
2023/05/29 10:16:07;;;;;;;2.75;1.15;;;;;;;;;;4995052;28;20038;-75
2023/05/29 10:18:42;;;;;;;7.28;1.60;;;;;;;;;;4995173;28;20038;-75
2023/05/29 10:21:11;;;;;;;4.28;1.33;;;;;;;;;;4995168;28;20043;-75
2023/05/29 10:23:40;;;;;;;5.25;1.70;;;;;;;;;;4993932;28;20046;-75
2023/05/29 10:26:15;;;;;;;6.05;1.58;;;;;;;;;;4994139;28;20045;-76
2023/05/29 10:28:45;;;;;;;8.48;1.75;;;;;;;;;;4993806;28;20034;-75
2023/05/29 10:31:16;;;;;;;7.13;1.80;;;;;;;;;;4992997;28;20414;-75
2023/05/29 10:34:14;;;;;;;6.03;1.70;;;;;;;;;;4982527;28;20078;-75
2023/05/29 10:36:43;;;;;;;4.80;1.33;;;;;;;;;;4994010;28;20034;-75
2023/05/29 10:39:09;;;;;;;5.22;1.20;;;;;;;;;;4993321;28;20034;-75
2023/05/29 10:41:39;;;;;;;9.20;2.03;;;;;;;;;;4993629;28;20352;-75
2023/05/29 10:44:44;;;;;;;6.90;1.80;;;;;;;;;;4994810;28;20068;-75
2023/05/29 10:47:12;;;;;;;6.20;1.52;;;;;;;;;;4994225;28;20038;-75
2023/05/29 10:49:37;;;;;;;6.78;1.50;;;;;;;;;;4993574;28;20041;-75
2023/05/29 10:52:05;;;;;;;6.65;1.52;;;;;;;;;;4993492;28;20046;-75
2023/05/29 10:54:40;;;;;;;5.55;1.35;;;;;;;;;;4985021;28;20052;-75
2023/05/29 10:57:08;;;;;;;6.28;1.45;;;;;;;;;;4990009;28;20049;-75
2023/05/29 10:59:36;;;;;;;4.57;1.58;;;;;;;;;;4993931;28;20081;-75
2023/05/29 11:02:04;;;;;;;5.63;1.73;;;;;;;;;;4993345;28;20045;-75
2023/05/29 11:04:31;;;;;;;7.40;1.80;;;;;;;;;;4994455;28;20463;-75
2023/05/29 11:06:57;;;;;;;6.53;1.42;;;;;;;;;;4994320;28;20045;-75
2023/05/29 11:09:30;;;;;;;5.85;1.60;;;;;;;;;;4994551;28;20378;-74
2023/05/29 11:12:35;;;;;;;4.65;1.50;;;;;;;;;;4993039;28;20042;-75
2023/05/29 11:15:06;;;;;;;4.13;1.35;;;;;;;;;;4990748;28;20027;-75
2023/05/29 11:17:55;;;;;;;6.75;1.27;;;;;;;;;;4993201;28;20046;-75
2023/05/29 11:20:28;;;;;;;4.93;1.33;;;;;;;;;;4981343;28;20374;-75
2023/05/29 11:23:00;;;;;;;2.35;1.20;;;;;;;;;;4994178;28;20188;-75
2023/05/29 11:25:26;;;;;;;4.03;1.30;;;;;;;;;;4994136;28;20034;-74
2023/05/29 11:27:52;;;;;;;3.58;1.30;;;;;;;;;;4993002;28;20072;-75
2023/05/29 11:30:18;;;;;;;6.65;1.45;;;;;;;;;;4993889;28;20421;-76
2023/05/29 11:32:46;;;;;;;2.97;1.02;;;;;;;;;;4994015;28;20026;-74
2023/05/29 11:35:13;;;;;;;4.88;1.55;;;;;;;;;;4991434;28;20496;-75
2023/05/29 11:37:40;;;;;;;5.60;1.15;;;;;;;;;;4990957;28;20065;-75
2023/05/29 11:40:09;;;;;;;5.40;0.95;;;;;;;;;;4992075;28;20475;-75
2023/05/29 11:42:35;;;;;;;3.45;1.23;;;;;;;;;;4992567;28;20042;-75
2023/05/29 11:45:13;;;;;;;6.00;1.55;;;;;;;;;;4992115;28;20034;-75
2023/05/29 11:47:59;;;;;;;5.00;1.30;;;;;;;;;;4983224;28;20054;-75
2023/05/29 11:50:31;;;;;;;3.95;1.13;;;;;;;;;;4995797;28;20034;-75
2023/05/29 11:52:58;;;;;;;6.80;1.80;;;;;;;;;;4983040;28;20047;-74
2023/05/29 11:55:24;;;;;;;3.75;1.33;;;;;;;;;;4977795;28;20041;-75
2023/05/29 11:57:51;;;;;;;4.97;1.58;;;;;;;;;;5013090;28;20555;-75
2023/05/29 12:00:18;;;;;;;6.70;1.05;;;;;;;;;;4982217;28;20126;-76
2023/05/29 12:02:46;;;;;;;7.93;1.85;;;;;;;;;;4989852;28;20026;-74
2023/05/29 12:05:14;;;;;;;6.32;1.60;;;;;;;;;;4987722;28;20126;-75
2023/05/29 12:07:47;;;;;;;8.48;1.88;;;;;;;;;;4981596;28;20458;-75
2023/05/29 12:10:14;;;;;;;6.07;1.52;;;;;;;;;;4981548;28;20125;-75
2023/05/29 12:12:40;;;;;;;4.00;1.30;;;;;;;;;;4990513;28;20038;-75
2023/05/29 12:15:08;;;;;;;5.47;1.63;;;;;;;;;;4991508;28;20026;-75
2023/05/29 12:17:34;;;;;;;8.85;1.77;;;;;;;;;;4981957;28;20031;-75
2023/05/29 12:19:59;;;;;;;5.55;1.42;;;;;;;;;;4988087;28;20418;-75
2023/05/29 12:22:36;;;;;;;4.68;1.38;;;;;;;;;;4984079;28;20038;-75
2023/05/29 12:25:07;;;;;;;7.82;1.88;;;;;;;;;;4989791;28;20548;-75
2023/05/29 12:27:41;;;;;;;6.60;1.75;;;;;;;;;;4991893;28;20476;-75
2023/05/29 12:30:08;;;;;;;;;;;;;;;;;;4991485;28;20080;-75
2023/05/29 12:32:42;;;;;;;5.10;1.77;;;;;;;;;;4987989;28;19914;-74
2023/05/29 12:35:15;;;;;;;3.90;1.10;;;;;;;;;;4981808;28;20073;-74
2023/05/29 12:37:47;;;;;;;9.30;1.83;;;;;;;;;;4979902;28;20037;-75
2023/05/29 12:40:15;;;;;;;4.78;1.30;;;;;;;;;;4987900;28;20038;-76
2023/05/29 12:42:41;;;;;;;5.82;1.58;;;;;;;;;;4988354;28;20073;-75
2023/05/29 12:45:08;;;;;;;5.72;1.67;;;;;;;;;;4983776;28;20432;-75
2023/05/29 12:47:33;;;;;;;6.90;1.45;;;;;;;;;;4990127;28;20367;-74
2023/05/29 12:49:59;;;;;;;3.83;1.27;;;;;;;;;;4991176;28;20081;-75
2023/05/29 12:52:24;;;;;;;5.20;1.70;;;;;;;;;;4981145;28;20394;-75
2023/05/29 12:54:50;;;;;;;3.53;1.58;;;;;;;;;;4983085;28;20037;-75
2023/05/29 12:57:15;;;;;;;5.20;1.20;;;;;;;;;;4993266;28;20085;-74
2023/05/29 12:59:41;;;;;;;3.70;1.45;;;;;;;;;;4987574;28;20553;-75
2023/05/29 13:02:09;;;;;;;4.53;1.38;;;;;;;;;;4990728;28;20403;-75
2023/05/29 13:04:35;;;;;;;5.30;1.45;;;;;;;;;;4996551;28;20042;-76
2023/05/29 13:07:00;;;;;;;6.57;1.50;;;;;;;;;;4996084;28;20117;-75
2023/05/29 13:09:25;;;;;;;2.30;1.25;;;;;;;;;;4992181;28;20459;-76
2023/05/29 13:11:52;;;;;;;5.85;1.52;;;;;;;;;;4996700;28;20402;-75
2023/05/29 13:14:18;;;;;;;7.20;1.30;;;;;;;;;;4996833;28;20042;-75
2023/05/29 13:16:43;;;;;;;4.03;1.48;;;;;;;;;;4996387;28;20053;-75
2023/05/29 13:19:09;;;;;;;5.65;1.35;;;;;;;;;;4996179;28;20046;-76
2023/05/29 13:21:35;;;;;;;4.80;1.33;;;;;;;;;;4996462;28;20486;-75
2023/05/29 13:24:00;;;;;;;4.68;1.52;;;;;;;;;;4996459;28;20042;-75
2023/05/29 13:26:25;;;;;;;7.55;1.98;;;;;;;;;;4996296;28;20053;-75
2023/05/29 13:28:51;;;;;;;4.68;1.45;;;;;;;;;;4995756;28;20046;-75
2023/05/29 13:31:17;;;;;;;7.10;1.80;;;;;;;;;;4996051;28;20426;-75
2023/05/29 13:33:43;;;;;;;2.63;1.15;;;;;;;;;;4996206;28;20465;-75
2023/05/29 13:36:08;;;;;;;7.35;1.58;;;;;;;;;;4994637;28;20077;-75
2023/05/29 13:38:33;;;;;;;31.17;20.38;;;;;;;;;;4995800;28;20122;-75
2023/05/29 13:40:59;;;;;;;5.32;1.50;;;;;;;;;;4995992;28;20038;-76
2023/05/29 13:43:24;;;;;;;4.55;1.30;;;;;;;;;;4996004;28;20466;-75
2023/05/29 13:45:50;;;;;;;5.68;2.10;;;;;;;;;;4995685;28;20026;-74
2023/05/29 13:48:15;;;;;;;4.38;1.13;;;;;;;;;;4995620;28;20042;-75
2023/05/29 13:50:40;;;;;;;12.45;6.90;;;;;;;;;;4995752;28;20034;-75
2023/05/29 13:53:06;;;;;;;2.38;0.93;;;;;;;;;;4995745;28;20070;-75
2023/05/29 13:55:31;;;;;;;8.50;1.67;;;;;;;;;;4995714;28;20053;-76
2023/05/29 13:57:57;;;;;;;2.90;1.30;;;;;;;;;;4993978;28;20121;-76
2023/05/29 14:00:23;;;;;;;6.32;3.60;;;;;;;;;;4995275;28;20070;-75
2023/05/29 14:02:48;;;;;;;4.38;1.50;;;;;;;;;;4994743;28;20066;-74
2023/05/29 14:05:13;;;;;;;11.82;1.90;;;;;;;;;;4992360;28;20045;-75
2023/05/29 14:07:39;;;;;;;5.28;1.17;;;;;;;;;;4994842;28;20030;-74
2023/05/29 14:10:05;;;;;;;6.45;1.77;;;;;;;;;;4995490;28;20113;-75
2023/05/29 14:12:30;;;;;;;9.27;2.30;;;;;;;;;;4993352;28;20526;-75
2023/05/29 14:14:56;;;;;;;2.75;1.23;;;;;;;;;;4992323;28;20042;-75
2023/05/29 14:17:21;;;;;;;5.40;1.65;;;;;;;;;;4994073;28;20053;-75
2023/05/29 14:19:47;;;;;;;8.45;1.63;;;;;;;;;;4995117;28;20038;-75
2023/05/29 14:22:13;;;;;;;2.33;1.13;;;;;;;;;;4995337;28;20097;-75
2023/05/29 14:24:38;;;;;;;5.82;1.70;;;;;;;;;;4993676;28;20030;-74
2023/05/29 14:27:04;;;;;;;5.25;2.30;;;;;;;;;;4994680;28;20031;-76
2023/05/29 14:29:29;;;;;;;10.93;1.63;;;;;;;;;;4994319;28;20034;-75
2023/05/29 14:31:55;;;;;;;8.55;2.67;;;;;;;;;;4993981;28;20101;-75
2023/05/29 14:34:21;;;;;;;4.50;1.40;;;;;;;;;;4993748;28;20057;-75
2023/05/29 14:36:47;;;;;;;7.30;2.17;;;;;;;;;;4994295;28;20475;-75
2023/05/29 14:39:12;;;;;;;5.35;1.38;;;;;;;;;;4993029;28;20045;-75